sensor_id;sensor_type;location;lat;lon;timestamp;pressure;altitude;pressure_sealevel;temperature;humidity
74921;BME280;63483;47.384;8.860;2023-11-19T00:01:07;94893.84;;;5.21;58.39
74921;BME280;63483;47.384;8.860;2023-11-19T00:03:33;94887.59;;;5.14;58.88
74921;BME280;63483;47.384;8.860;2023-11-19T00:05:59;94886.19;;;5.20;58.86
74921;BME280;63483;47.384;8.860;2023-11-19T00:08:24;94877.56;;;5.29;59.38
74921;BME280;63483;47.384;8.860;2023-11-19T00:10:50;94869.50;;;5.32;59.21
74921;BME280;63483;47.384;8.860;2023-11-19T00:13:16;94881.41;;;5.25;59.48
74921;BME280;63483;47.384;8.860;2023-11-19T00:15:41;94878.25;;;5.31;59.53
74921;BME280;63483;47.384;8.860;2023-11-19T00:18:07;94884.50;;;5.38;59.11
74921;BME280;63483;47.384;8.860;2023-11-19T00:20:32;94863.16;;;5.44;59.08
74921;BME280;63483;47.384;8.860;2023-11-19T00:22:57;94844.31;;;5.42;59.29
74921;BME280;63483;47.384;8.860;2023-11-19T00:25:23;94841.75;;;5.33;59.62
74921;BME280;63483;47.384;8.860;2023-11-19T00:27:48;94840.66;;;5.25;60.12
74921;BME280;63483;47.384;8.860;2023-11-19T00:30:14;94837.75;;;5.38;59.64
74921;BME280;63483;47.384;8.860;2023-11-19T00:32:40;94837.31;;;5.43;60.07
74921;BME280;63483;47.384;8.860;2023-11-19T00:35:07;94833.34;;;5.48;59.96
74921;BME280;63483;47.384;8.860;2023-11-19T00:37:32;94819.69;;;5.46;59.79
74921;BME280;63483;47.384;8.860;2023-11-19T00:39:58;94828.22;;;5.57;60.24
74921;BME280;63483;47.384;8.860;2023-11-19T00:42:24;94817.25;;;5.35;60.50
74921;BME280;63483;47.384;8.860;2023-11-19T00:44:50;94825.41;;;5.50;60.64
74921;BME280;63483;47.384;8.860;2023-11-19T00:47:15;94820.19;;;5.60;60.21
74921;BME280;63483;47.384;8.860;2023-11-19T00:49:41;94815.88;;;5.41;61.02
74921;BME280;63483;47.384;8.860;2023-11-19T00:52:07;94822.19;;;5.66;60.28
74921;BME280;63483;47.384;8.860;2023-11-19T00:54:33;94828.03;;;5.68;59.94
74921;BME280;63483;47.384;8.860;2023-11-19T00:56:58;94812.16;;;5.71;60.28
74921;BME280;63483;47.384;8.860;2023-11-19T00:59:23;94812.25;;;5.79;59.84
74921;BME280;63483;47.384;8.860;2023-11-19T01:01:49;94803.13;;;5.75;60.67
74921;BME280;63483;47.384;8.860;2023-11-19T01:04:16;94813.63;;;5.83;60.04
74921;BME280;63483;47.384;8.860;2023-11-19T01:06:41;94816.88;;;5.86;59.95
74921;BME280;63483;47.384;8.860;2023-11-19T01:09:08;94819.69;;;5.92;59.50
74921;BME280;63483;47.384;8.860;2023-11-19T01:11:34;94817.53;;;5.88;59.52
74921;BME280;63483;47.384;8.860;2023-11-19T01:13:59;94823.03;;;5.85;59.52
74921;BME280;63483;47.384;8.860;2023-11-19T01:16:25;94811.19;;;6.00;59.19
74921;BME280;63483;47.384;8.860;2023-11-19T01:18:51;94797.28;;;6.09;59.27
74921;BME280;63483;47.384;8.860;2023-11-19T01:21:16;94782.03;;;6.14;58.68
74921;BME280;63483;47.384;8.860;2023-11-19T01:23:42;94791.94;;;6.11;59.13
74921;BME280;63483;47.384;8.860;2023-11-19T01:26:11;94799.59;;;6.12;58.87
74921;BME280;63483;47.384;8.860;2023-11-19T01:28:37;94800.09;;;6.16;59.19
74921;BME280;63483;47.384;8.860;2023-11-19T01:31:04;94789.28;;;6.21;58.54
74921;BME280;63483;47.384;8.860;2023-11-19T01:33:30;94792.97;;;6.18;59.08
74921;BME280;63483;47.384;8.860;2023-11-19T01:35:55;94790.75;;;6.23;59.08
74921;BME280;63483;47.384;8.860;2023-11-19T01:38:23;94774.78;;;6.36;58.54
74921;BME280;63483;47.384;8.860;2023-11-19T01:40:49;94786.44;;;6.32;58.85
74921;BME280;63483;47.384;8.860;2023-11-19T01:43:33;94780.81;;;6.37;58.86
74921;BME280;63483;47.384;8.860;2023-11-19T01:46:00;94783.56;;;6.35;58.69
74921;BME280;63483;47.384;8.860;2023-11-19T01:48:26;94776.31;;;6.47;58.30
74921;BME280;63483;47.384;8.860;2023-11-19T01:50:53;94784.44;;;6.44;58.67
74921;BME280;63483;47.384;8.860;2023-11-19T01:53:19;94795.38;;;6.47;58.40
74921;BME280;63483;47.384;8.860;2023-11-19T01:55:46;94791.72;;;6.58;57.86
74921;BME280;63483;47.384;8.860;2023-11-19T01:58:13;94780.53;;;6.66;57.67
74921;BME280;63483;47.384;8.860;2023-11-19T02:00:38;94773.03;;;6.63;57.75
74921;BME280;63483;47.384;8.860;2023-11-19T02:03:06;94779.66;;;6.57;57.75
74921;BME280;63483;47.384;8.860;2023-11-19T02:05:34;94768.41;;;6.75;57.28
74921;BME280;63483;47.384;8.860;2023-11-19T02:08:00;94775.91;;;6.78;57.07
74921;BME280;63483;47.384;8.860;2023-11-19T02:10:26;94772.19;;;6.80;57.24
74921;BME280;63483;47.384;8.860;2023-11-19T02:12:51;94786.72;;;6.91;56.65
74921;BME280;63483;47.384;8.860;2023-11-19T02:15:17;94762.47;;;6.91;56.58
74921;BME280;63483;47.384;8.860;2023-11-19T02:17:44;94765.00;;;6.74;57.01
74921;BME280;63483;47.384;8.860;2023-11-19T02:20:10;94767.31;;;6.85;57.03
74921;BME280;63483;47.384;8.860;2023-11-19T02:22:40;94764.72;;;6.85;56.58
74921;BME280;63483;47.384;8.860;2023-11-19T02:25:07;94768.72;;;6.98;56.40
74921;BME280;63483;47.384;8.860;2023-11-19T02:27:44;94756.19;;;7.01;56.39
74921;BME280;63483;47.384;8.860;2023-11-19T02:30:11;94748.59;;;7.08;56.03
74921;BME280;63483;47.384;8.860;2023-11-19T02:32:41;94754.75;;;7.07;56.08
74921;BME280;63483;47.384;8.860;2023-11-19T02:35:06;94748.59;;;7.08;55.83
74921;BME280;63483;47.384;8.860;2023-11-19T02:37:37;94730.47;;;6.98;56.18
74921;BME280;63483;47.384;8.860;2023-11-19T02:40:03;94727.91;;;7.07;55.48
74921;BME280;63483;47.384;8.860;2023-11-19T02:42:30;94733.44;;;7.12;55.86
74921;BME280;63483;47.384;8.860;2023-11-19T02:44:55;94733.13;;;7.15;55.68
74921;BME280;63483;47.384;8.860;2023-11-19T02:47:20;94724.84;;;7.19;55.77
74921;BME280;63483;47.384;8.860;2023-11-19T02:49:49;94724.84;;;7.19;55.72
74921;BME280;63483;47.384;8.860;2023-11-19T02:52:15;94722.59;;;7.25;55.50
74921;BME280;63483;47.384;8.860;2023-11-19T02:54:40;94733.50;;;7.28;55.60
74921;BME280;63483;47.384;8.860;2023-11-19T02:57:06;94736.78;;;7.30;55.80
74921;BME280;63483;47.384;8.860;2023-11-19T02:59:35;94734.03;;;7.32;55.70
74921;BME280;63483;47.384;8.860;2023-11-19T03:02:05;94744.44;;;7.32;55.78
74921;BME280;63483;47.384;8.860;2023-11-19T03:04:35;94760.09;;;7.32;55.86
74921;BME280;63483;47.384;8.860;2023-11-19T03:07:00;94777.66;;;7.30;55.80
74921;BME280;63483;47.384;8.860;2023-11-19T03:09:25;94764.47;;;7.31;55.93
74921;BME280;63483;47.384;8.860;2023-11-19T03:11:51;94751.28;;;7.33;55.96
74921;BME280;63483;47.384;8.860;2023-11-19T03:14:16;94754.88;;;7.32;55.82
74921;BME280;63483;47.384;8.860;2023-11-19T03:16:45;94754.56;;;7.35;55.92
74921;BME280;63483;47.384;8.860;2023-11-19T03:19:11;94755.69;;;7.32;56.42
74921;BME280;63483;47.384;8.860;2023-11-19T03:21:36;94750.47;;;7.32;56.18
74921;BME280;63483;47.384;8.860;2023-11-19T03:24:02;94743.13;;;7.28;56.10
74921;BME280;63483;47.384;8.860;2023-11-19T03:26:27;94756.81;;;7.30;56.63
74921;BME280;63483;47.384;8.860;2023-11-19T03:28:53;94755.19;;;7.29;56.78
74921;BME280;63483;47.384;8.860;2023-11-19T03:31:19;94760.25;;;7.30;56.59
74921;BME280;63483;47.384;8.860;2023-11-19T03:33:45;94760.72;;;7.26;56.95
74921;BME280;63483;47.384;8.860;2023-11-19T03:36:10;94759.72;;;7.27;56.85
74921;BME280;63483;47.384;8.860;2023-11-19T03:38:37;94759.38;;;7.21;56.90
74921;BME280;63483;47.384;8.860;2023-11-19T03:41:12;94748.97;;;7.21;57.42
74921;BME280;63483;47.384;8.860;2023-11-19T03:43:39;94761.31;;;7.19;57.10
74921;BME280;63483;47.384;8.860;2023-11-19T03:46:07;94748.97;;;7.21;57.32
74921;BME280;63483;47.384;8.860;2023-11-19T03:48:40;94753.16;;;7.14;57.61
74921;BME280;63483;47.384;8.860;2023-11-19T03:51:05;94753.34;;;7.21;57.23
74921;BME280;63483;47.384;8.860;2023-11-19T03:53:30;94755.78;;;7.22;57.45
74921;BME280;63483;47.384;8.860;2023-11-19T03:55:56;94755.63;;;7.24;56.93
74921;BME280;63483;47.384;8.860;2023-11-19T03:58:21;94761.00;;;7.22;57.27
74921;BME280;63483;47.384;8.860;2023-11-19T04:00:46;94767.84;;;7.23;57.11
74921;BME280;63483;47.384;8.860;2023-11-19T04:03:11;94769.50;;;7.25;57.30
74921;BME280;63483;47.384;8.860;2023-11-19T04:05:37;94765.41;;;7.22;57.11
74921;BME280;63483;47.384;8.860;2023-11-19T04:08:02;94748.13;;;7.21;57.23
74921;BME280;63483;47.384;8.860;2023-11-19T04:10:28;94762.16;;;7.20;57.39
74921;BME280;63483;47.384;8.860;2023-11-19T04:12:53;94766.22;;;7.22;57.53
74921;BME280;63483;47.384;8.860;2023-11-19T04:15:18;94774.69;;;7.25;57.26
74921;BME280;63483;47.384;8.860;2023-11-19T04:17:44;94771.13;;;7.26;57.18
74921;BME280;63483;47.384;8.860;2023-11-19T04:20:09;94777.97;;;7.27;57.38
74921;BME280;63483;47.384;8.860;2023-11-19T04:22:38;94776.34;;;7.26;57.25
74921;BME280;63483;47.384;8.860;2023-11-19T04:25:03;94790.03;;;7.28;57.39
74921;BME280;63483;47.384;8.860;2023-11-19T04:27:29;94791.66;;;7.29;57.44
74921;BME280;63483;47.384;8.860;2023-11-19T04:29:55;94798.81;;;7.27;57.47
74921;BME280;63483;47.384;8.860;2023-11-19T04:32:20;94786.09;;;7.23;57.66
74921;BME280;63483;47.384;8.860;2023-11-19T04:34:46;94803.69;;;7.21;57.92
74921;BME280;63483;47.384;8.860;2023-11-19T04:37:11;94793.91;;;7.23;57.80
74921;BME280;63483;47.384;8.860;2023-11-19T04:39:36;94807.91;;;7.22;57.85
74921;BME280;63483;47.384;8.860;2023-11-19T04:42:02;94795.53;;;7.25;57.83
74921;BME280;63483;47.384;8.860;2023-11-19T04:44:29;94795.63;;;7.07;58.44
74921;BME280;63483;47.384;8.860;2023-11-19T04:46:55;94806.06;;;7.15;58.42
74921;BME280;63483;47.384;8.860;2023-11-19T04:49:20;94803.00;;;7.19;58.26
74921;BME280;63483;47.384;8.860;2023-11-19T04:51:46;94801.38;;;7.18;58.28
74921;BME280;63483;47.384;8.860;2023-11-19T04:54:12;94801.06;;;7.21;58.05
74921;BME280;63483;47.384;8.860;2023-11-19T04:56:38;94808.19;;;7.19;58.23
74921;BME280;63483;47.384;8.860;2023-11-19T04:59:04;94809.34;;;7.17;58.13
74921;BME280;63483;47.384;8.860;2023-11-19T05:01:31;94801.47;;;7.09;58.49
74921;BME280;63483;47.384;8.860;2023-11-19T05:03:56;94806.44;;;7.20;58.25
74921;BME280;63483;47.384;8.860;2023-11-19T05:06:28;94804.63;;;7.20;58.46
74921;BME280;63483;47.384;8.860;2023-11-19T05:08:58;94805.28;;;7.22;58.36
74921;BME280;63483;47.384;8.860;2023-11-19T05:11:26;94799.44;;;7.20;58.36
74921;BME280;63483;47.384;8.860;2023-11-19T05:13:53;94800.75;;;7.25;58.32
74921;BME280;63483;47.384;8.860;2023-11-19T05:16:18;94800.06;;;7.22;58.22
74921;BME280;63483;47.384;8.860;2023-11-19T05:18:44;94803.69;;;7.21;58.59
74921;BME280;63483;47.384;8.860;2023-11-19T05:21:10;94806.59;;;7.18;58.94
74921;BME280;63483;47.384;8.860;2023-11-19T05:23:35;94795.53;;;7.25;58.60
74921;BME280;63483;47.384;8.860;2023-11-19T05:26:04;94791.66;;;7.29;58.35
74921;BME280;63483;47.384;8.860;2023-11-19T05:28:29;94805.66;;;7.28;58.62
74921;BME280;63483;47.384;8.860;2023-11-19T05:30:54;94803.53;;;7.31;58.43
74921;BME280;63483;47.384;8.860;2023-11-19T05:33:20;94798.00;;;7.26;58.78
74921;BME280;63483;47.384;8.860;2023-11-19T05:35:46;94812.66;;;7.27;58.55
74921;BME280;63483;47.384;8.860;2023-11-19T05:38:11;94812.84;;;7.34;58.67
74921;BME280;63483;47.384;8.860;2023-11-19T05:40:37;94805.03;;;7.34;58.26
74921;BME280;63483;47.384;8.860;2023-11-19T05:43:04;94808.28;;;7.36;58.47
74921;BME280;63483;47.384;8.860;2023-11-19T05:45:29;94819.34;;;7.30;58.69
74921;BME280;63483;47.384;8.860;2023-11-19T05:47:54;94818.06;;;7.34;58.55
74921;BME280;63483;47.384;8.860;2023-11-19T05:50:20;94819.22;;;7.39;58.40
74921;BME280;63483;47.384;8.860;2023-11-19T05:52:46;94813.50;;;7.36;58.60
74921;BME280;63483;47.384;8.860;2023-11-19T05:55:11;94813.63;;;7.26;58.76
74921;BME280;63483;47.384;8.860;2023-11-19T05:57:38;94808.88;;;6.69;55.64
74921;BME280;63483;47.384;8.860;2023-11-19T06:00:05;94806.63;;;6.02;54.66
74921;BME280;63483;47.384;8.860;2023-11-19T06:02:32;94792.06;;;5.73;59.50
74921;BME280;63483;47.384;8.860;2023-11-19T06:04:58;94796.09;;;5.58;57.30
74921;BME280;63483;47.384;8.860;2023-11-19T06:07:23;94788.84;;;5.34;57.31
74921;BME280;63483;47.384;8.860;2023-11-19T06:09:48;94792.09;;;5.36;58.14
74921;BME280;63483;47.384;8.860;2023-11-19T06:12:14;94788.00;;;5.33;58.59
74921;BME280;63483;47.384;8.860;2023-11-19T06:14:40;94786.13;;;5.25;58.81
74921;BME280;63483;47.384;8.860;2023-11-19T06:17:05;94789.72;;;5.15;56.71
74921;BME280;63483;47.384;8.860;2023-11-19T06:19:31;94789.91;;;5.03;57.44
74921;BME280;63483;47.384;8.860;2023-11-19T06:21:56;94798.00;;;4.90;55.44
74921;BME280;63483;47.384;8.860;2023-11-19T06:24:21;94784.03;;;5.11;57.64
74921;BME280;63483;47.384;8.860;2023-11-19T06:26:47;94793.00;;;5.17;60.34
74921;BME280;63483;47.384;8.860;2023-11-19T06:29:13;94790.25;;;5.18;56.61
74921;BME280;63483;47.384;8.860;2023-11-19T06:31:43;94795.56;;;5.26;57.87
74921;BME280;63483;47.384;8.860;2023-11-19T06:34:09;94803.88;;;5.30;57.54
74921;BME280;63483;47.384;8.860;2023-11-19T06:36:34;94805.22;;;5.34;58.15
74921;BME280;63483;47.384;8.860;2023-11-19T06:39:00;94805.88;;;5.74;59.74
74921;BME280;63483;47.384;8.860;2023-11-19T06:41:26;94801.38;;;5.94;60.25
74921;BME280;63483;47.384;8.860;2023-11-19T06:43:52;94805.28;;;6.16;60.60
74921;BME280;63483;47.384;8.860;2023-11-19T06:46:17;94799.72;;;6.29;60.78
74921;BME280;63483;47.384;8.860;2023-11-19T06:48:43;94807.84;;;6.44;61.67
74921;BME280;63483;47.384;8.860;2023-11-19T06:51:09;94814.19;;;6.59;60.82
74921;BME280;63483;47.384;8.860;2023-11-19T06:53:35;94816.78;;;6.59;61.47
74921;BME280;63483;47.384;8.860;2023-11-19T06:56:01;94812.81;;;6.73;61.04
74921;BME280;63483;47.384;8.860;2023-11-19T06:58:28;94815.47;;;6.81;60.92
74921;BME280;63483;47.384;8.860;2023-11-19T07:00:53;94816.47;;;6.88;60.90
74921;BME280;63483;47.384;8.860;2023-11-19T07:03:18;94817.81;;;6.93;61.38
74921;BME280;63483;47.384;8.860;2023-11-19T07:05:45;94810.72;;;7.03;60.82
74921;BME280;63483;47.384;8.860;2023-11-19T07:08:10;94817.25;;;7.07;60.66
74921;BME280;63483;47.384;8.860;2023-11-19T07:10:36;94821.59;;;6.98;61.52
74921;BME280;63483;47.384;8.860;2023-11-19T07:13:01;94817.00;;;7.18;60.73
74921;BME280;63483;47.384;8.860;2023-11-19T07:15:31;94819.50;;;7.28;60.67
74921;BME280;63483;47.384;8.860;2023-11-19T07:17:57;94820.91;;;7.22;60.66
74921;BME280;63483;47.384;8.860;2023-11-19T07:20:24;94815.44;;;7.34;60.32
74921;BME280;63483;47.384;8.860;2023-11-19T07:22:49;94826.09;;;7.14;61.17
74921;BME280;63483;47.384;8.860;2023-11-19T07:25:15;94825.06;;;7.33;60.53
74921;BME280;63483;47.384;8.860;2023-11-19T07:27:40;94805.97;;;6.98;60.36
74921;BME280;63483;47.384;8.860;2023-11-19T07:30:06;94812.81;;;6.73;59.98
74921;BME280;63483;47.384;8.860;2023-11-19T07:32:33;94804.81;;;6.48;56.94
74921;BME280;63483;47.384;8.860;2023-11-19T07:34:58;94814.00;;;6.25;56.04
74921;BME280;63483;47.384;8.860;2023-11-19T07:37:23;94816.88;;;6.04;59.66
74921;BME280;63483;47.384;8.860;2023-11-19T07:39:49;94811.81;;;5.84;58.58
74921;BME280;63483;47.384;8.860;2023-11-19T07:42:14;94820.78;;;5.72;57.65
74921;BME280;63483;47.384;8.860;2023-11-19T07:44:40;94824.31;;;5.53;60.50
74921;BME280;63483;47.384;8.860;2023-11-19T07:47:06;94825.25;;;5.52;59.08
74921;BME280;63483;47.384;8.860;2023-11-19T07:49:31;94819.88;;;5.35;57.65
74921;BME280;63483;47.384;8.860;2023-11-19T07:51:57;94813.78;;;5.17;57.34
74921;BME280;63483;47.384;8.860;2023-11-19T07:54:22;94825.91;;;5.26;59.64
74921;BME280;63483;47.384;8.860;2023-11-19T07:56:48;94816.38;;;5.17;59.05
74921;BME280;63483;47.384;8.860;2023-11-19T07:59:14;94827.25;;;5.30;62.86
74921;BME280;63483;47.384;8.860;2023-11-19T08:01:40;94828.03;;;5.40;61.63
74921;BME280;63483;47.384;8.860;2023-11-19T08:04:05;94829.78;;;5.50;59.20
74921;BME280;63483;47.384;8.860;2023-11-19T08:06:30;94830.53;;;5.32;58.02
74921;BME280;63483;47.384;8.860;2023-11-19T08:08:56;94828.22;;;5.29;58.91
74921;BME280;63483;47.384;8.860;2023-11-19T08:11:21;94824.88;;;5.46;60.42
74921;BME280;63483;47.384;8.860;2023-11-19T08:13:46;94826.22;;;5.51;59.36
74921;BME280;63483;47.384;8.860;2023-11-19T08:16:12;94828.47;;;5.91;61.00
74921;BME280;63483;47.384;8.860;2023-11-19T08:18:37;94833.19;;;6.06;62.47
74921;BME280;63483;47.384;8.860;2023-11-19T08:21:03;94820.66;;;6.37;63.28
74921;BME280;63483;47.384;8.860;2023-11-19T08:23:30;94824.75;;;6.58;63.44
74921;BME280;63483;47.384;8.860;2023-11-19T08:25:55;94818.66;;;6.75;64.66
74921;BME280;63483;47.384;8.860;2023-11-19T08:28:20;94819.47;;;6.94;62.27
74921;BME280;63483;47.384;8.860;2023-11-19T08:30:46;94827.91;;;6.96;63.86
74921;BME280;63483;47.384;8.860;2023-11-19T08:33:11;94828.44;;;7.26;62.23
74921;BME280;63483;47.384;8.860;2023-11-19T08:35:37;94833.53;;;7.35;61.92
74921;BME280;63483;47.384;8.860;2023-11-19T08:38:02;94838.66;;;7.45;61.41
74921;BME280;63483;47.384;8.860;2023-11-19T08:40:28;94834.06;;;7.39;62.61
74921;BME280;63483;47.384;8.860;2023-11-19T08:42:53;94837.69;;;7.54;61.14
74921;BME280;63483;47.384;8.860;2023-11-19T08:45:18;94839.75;;;7.69;61.15
74921;BME280;63483;47.384;8.860;2023-11-19T08:47:44;94835.84;;;7.73;60.75
74921;BME280;63483;47.384;8.860;2023-11-19T08:50:11;94850.69;;;7.72;61.11
74921;BME280;63483;47.384;8.860;2023-11-19T08:52:36;94843.69;;;7.81;60.98
74921;BME280;63483;47.384;8.860;2023-11-19T08:55:02;94848.28;;;7.87;60.37
74921;BME280;63483;47.384;8.860;2023-11-19T08:57:28;94841.47;;;7.86;60.23
74921;BME280;63483;47.384;8.860;2023-11-19T08:59:53;94845.72;;;7.96;60.22
74921;BME280;63483;47.384;8.860;2023-11-19T09:02:18;94857.47;;;8.00;60.46
74921;BME280;63483;47.384;8.860;2023-11-19T09:04:44;94850.78;;;8.05;59.94
74921;BME280;63483;47.384;8.860;2023-11-19T09:07:09;94862.38;;;8.11;59.72
74921;BME280;63483;47.384;8.860;2023-11-19T09:09:35;94850.66;;;8.15;59.38
74921;BME280;63483;47.384;8.860;2023-11-19T09:12:02;94853.53;;;8.04;59.60
74921;BME280;63483;47.384;8.860;2023-11-19T09:14:28;94867.09;;;8.16;59.51
74921;BME280;63483;47.384;8.860;2023-11-19T09:16:54;94853.59;;;8.20;59.71
74921;BME280;63483;47.384;8.860;2023-11-19T09:19:19;94863.41;;;8.26;59.71
74921;BME280;63483;47.384;8.860;2023-11-19T09:21:44;94861.44;;;8.28;59.11
74921;BME280;63483;47.384;8.860;2023-11-19T09:24:09;94858.19;;;8.26;59.27
74921;BME280;63483;47.384;8.860;2023-11-19T09:26:35;94863.41;;;8.26;59.55
74921;BME280;63483;47.384;8.860;2023-11-19T09:29:01;94854.59;;;8.27;59.34
74921;BME280;63483;47.384;8.860;2023-11-19T09:31:26;94861.72;;;8.17;59.61
74921;BME280;63483;47.384;8.860;2023-11-19T09:33:52;94852.63;;;7.70;60.57
74921;BME280;63483;47.384;8.860;2023-11-19T09:36:17;94856.03;;;8.14;59.66
74921;BME280;63483;47.384;8.860;2023-11-19T09:38:44;94862.22;;;8.13;59.84
74921;BME280;63483;47.384;8.860;2023-11-19T09:41:10;94853.59;;;8.20;59.67
74921;BME280;63483;47.384;8.860;2023-11-19T09:43:38;94853.63;;;8.28;59.60
74921;BME280;63483;47.384;8.860;2023-11-19T09:46:05;94855.09;;;8.31;59.45
74921;BME280;63483;47.384;8.860;2023-11-19T09:48:35;94848.75;;;8.42;59.33
74921;BME280;63483;47.384;8.860;2023-11-19T09:51:06;94847.44;;;8.46;59.06
74921;BME280;63483;47.384;8.860;2023-11-19T09:53:32;94855.75;;;8.50;59.04
74921;BME280;63483;47.384;8.860;2023-11-19T09:55:59;94843.22;;;8.53;58.89
74921;BME280;63483;47.384;8.860;2023-11-19T09:58:26;94852.66;;;8.54;58.68
74921;BME280;63483;47.384;8.860;2023-11-19T10:00:51;94850.06;;;8.54;58.76
74921;BME280;63483;47.384;8.860;2023-11-19T10:03:20;94844.03;;;8.54;58.64
74921;BME280;63483;47.384;8.860;2023-11-19T10:05:47;94838.47;;;8.57;58.60
74921;BME280;63483;47.384;8.860;2023-11-19T10:08:12;94831.47;;;8.49;58.90
74921;BME280;63483;47.384;8.860;2023-11-19T10:10:39;94828.03;;;8.57;58.72
74921;BME280;63483;47.384;8.860;2023-11-19T10:13:04;94837.34;;;8.59;58.49
74921;BME280;63483;47.384;8.860;2023-11-19T10:15:33;94832.78;;;8.53;58.85
74921;BME280;63483;47.384;8.860;2023-11-19T10:18:00;94828.53;;;8.60;58.56
74921;BME280;63483;47.384;8.860;2023-11-19T10:20:25;94836.22;;;8.62;58.63
74921;BME280;63483;47.384;8.860;2023-11-19T10:22:54;94824.59;;;8.64;58.66
74921;BME280;63483;47.384;8.860;2023-11-19T10:25:27;94832.09;;;8.68;58.37
74921;BME280;63483;47.384;8.860;2023-11-19T10:27:54;94838.00;;;8.70;58.44
74921;BME280;63483;47.384;8.860;2023-11-19T10:30:24;94827.88;;;8.67;58.37
74921;BME280;63483;47.384;8.860;2023-11-19T10:33:10;94834.09;;;8.57;58.96
74921;BME280;63483;47.384;8.860;2023-11-19T10:38:18;94845.31;;;8.66;58.75
74921;BME280;63483;47.384;8.860;2023-11-19T10:40:44;94830.03;;;7.79;53.16
74921;BME280;63483;47.384;8.860;2023-11-19T10:43:09;94827.22;;;7.46;54.86
74921;BME280;63483;47.384;8.860;2023-11-19T10:45:38;94831.50;;;7.21;56.26
74921;BME280;63483;47.384;8.860;2023-11-19T10:48:05;94825.06;;;6.81;54.87
74921;BME280;63483;47.384;8.860;2023-11-19T10:50:34;94820.78;;;6.53;57.48
74921;BME280;63483;47.384;8.860;2023-11-19T10:53:01;94803.25;;;6.38;57.12
74921;BME280;63483;47.384;8.860;2023-11-19T10:55:33;94797.25;;;6.37;58.77
74921;BME280;63483;47.384;8.860;2023-11-19T10:58:01;94805.91;;;6.28;62.45
74921;BME280;63483;47.384;8.860;2023-11-19T11:00:29;94808.66;;;6.62;60.18
74921;BME280;63483;47.384;8.860;2023-11-19T11:03:00;94819.53;;;6.40;59.53
74921;BME280;63483;47.384;8.860;2023-11-19T11:05:26;94815.78;;;6.06;59.00
74921;BME280;63483;47.384;8.860;2023-11-19T11:07:52;94819.34;;;6.05;60.13
74921;BME280;63483;47.384;8.860;2023-11-19T11:10:18;94816.69;;;5.97;61.31
74921;BME280;63483;47.384;8.860;2023-11-19T11:12:47;94818.28;;;5.98;58.23
74921;BME280;63483;47.384;8.860;2023-11-19T11:15:15;94810.31;;;5.81;58.89
74921;BME280;63483;47.384;8.860;2023-11-19T11:17:44;94810.25;;;5.73;59.86
74921;BME280;63483;47.384;8.860;2023-11-19T11:20:11;94812.72;;;5.93;60.34
74921;BME280;63483;47.384;8.860;2023-11-19T11:22:54;94803.69;;;5.97;60.18
74921;BME280;63483;47.384;8.860;2023-11-19T11:25:54;94820.03;;;6.61;63.19
74921;BME280;63483;47.384;8.860;2023-11-19T11:28:40;94815.88;;;6.95;62.82
74921;BME280;63483;47.384;8.860;2023-11-19T11:36:39;94794.97;;;7.73;62.26
74921;BME280;63483;47.384;8.860;2023-11-19T11:39:08;94788.97;;;7.89;61.92
74921;BME280;63483;47.384;8.860;2023-11-19T11:41:34;94802.84;;;7.98;62.09
74921;BME280;63483;47.384;8.860;2023-11-19T11:43:59;94791.59;;;7.98;62.19
74921;BME280;63483;47.384;8.860;2023-11-19T11:49:03;94777.28;;;8.18;62.17
74921;BME280;63483;47.384;8.860;2023-11-19T11:54:30;94775.00;;;8.15;62.60
74921;BME280;63483;47.384;8.860;2023-11-19T11:57:03;94777.59;;;8.32;62.14
74921;BME280;63483;47.384;8.860;2023-11-19T11:59:46;94762.47;;;8.52;61.35
74921;BME280;63483;47.384;8.860;2023-11-19T12:02:16;94760.00;;;8.58;61.22
74921;BME280;63483;47.384;8.860;2023-11-19T12:04:43;94764.22;;;8.68;60.89
74921;BME280;63483;47.384;8.860;2023-11-19T12:07:13;94757.69;;;8.72;60.98
74921;BME280;63483;47.384;8.860;2023-11-19T12:09:42;94763.59;;;8.82;60.60
74921;BME280;63483;47.384;8.860;2023-11-19T12:15:00;94760.94;;;8.98;60.13
74921;BME280;63483;47.384;8.860;2023-11-19T12:17:47;94755.69;;;9.07;59.98
74921;BME280;63483;47.384;8.860;2023-11-19T12:20:18;94755.19;;;9.11;59.79
74921;BME280;63483;47.384;8.860;2023-11-19T12:22:45;94748.66;;;9.15;59.63
74921;BME280;63483;47.384;8.860;2023-11-19T12:25:11;94754.69;;;9.16;59.50
74921;BME280;63483;47.384;8.860;2023-11-19T12:27:41;94747.34;;;9.20;59.33
74921;BME280;63483;47.384;8.860;2023-11-19T12:30:07;94744.91;;;9.10;59.53
74921;BME280;63483;47.384;8.860;2023-11-19T12:32:43;94745.19;;;9.23;59.13
74921;BME280;63483;47.384;8.860;2023-11-19T12:35:10;94752.53;;;9.28;59.10
74921;BME280;63483;47.384;8.860;2023-11-19T12:40:14;94753.66;;;9.25;58.86
74921;BME280;63483;47.384;8.860;2023-11-19T12:42:41;94740.31;;;9.20;58.88
74921;BME280;63483;47.384;8.860;2023-11-19T12:45:06;94745.81;;;9.33;58.73
74921;BME280;63483;47.384;8.860;2023-11-19T12:47:33;94745.63;;;9.35;58.92
74921;BME280;63483;47.384;8.860;2023-11-19T12:49:58;94747.41;;;9.43;58.67
74921;BME280;63483;47.384;8.860;2023-11-19T12:52:23;94740.84;;;9.47;58.49
74921;BME280;63483;47.384;8.860;2023-11-19T12:54:49;94746.72;;;9.49;58.36
74921;BME280;63483;47.384;8.860;2023-11-19T12:57:15;94744.75;;;9.51;58.16
74921;BME280;63483;47.384;8.860;2023-11-19T12:59:40;94739.00;;;9.56;58.21
74921;BME280;63483;47.384;8.860;2023-11-19T13:02:06;94740.31;;;9.60;58.10
74921;BME280;63483;47.384;8.860;2023-11-19T13:04:32;94737.88;;;9.58;58.03
74921;BME280;63483;47.384;8.860;2023-11-19T13:06:58;94727.06;;;9.61;57.92
74921;BME280;63483;47.384;8.860;2023-11-19T13:09:27;94727.41;;;9.58;57.93
74921;BME280;63483;47.384;8.860;2023-11-19T13:11:56;94727.06;;;9.61;58.05
74921;BME280;63483;47.384;8.860;2023-11-19T13:14:22;94724.13;;;9.56;58.20
74921;BME280;63483;47.384;8.860;2023-11-19T13:16:48;94721.34;;;9.58;58.24
74921;BME280;63483;47.384;8.860;2023-11-19T13:19:14;94722.19;;;9.58;58.41
74921;BME280;63483;47.384;8.860;2023-11-19T13:21:42;94712.34;;;9.60;58.10
74921;BME280;63483;47.384;8.860;2023-11-19T13:24:07;94719.56;;;9.58;58.11
74921;BME280;63483;47.384;8.860;2023-11-19T13:26:33;94717.13;;;9.57;57.95